^^
Grace C. Lehan Memorial Weather Station Historical Data
Daily Summary for November 19, 2021 Units:  Both    English   Metric
Daily Weekly Monthly Yearly
  High: Low: Average:
Temperature: 47.9 °F /  8.8 °C 34.1 °F /  1.2 °C 42.3 °F /  5.7 °C
Dew Point: 43.8 °F /  6.6 °C 26.8 °F /  -2.9 °C 34.1 °F /  1.2 °C
Humidity: 95% 51.3% 74%
Wind Speed: 13mph /  20.9km/h - 2.9mph /  4.7km/h
Wind Gust: 25mph /  40.2km/h - -
Wind- - WNW
Pressure: 30.42 in /  1030 hPa 29.93 in /  1013.4 hPa -
Precipitation: 0.11 in /  2.79 mm    
 
 
Tabular Data for November 19, 2021
Time Temperature Dew Point Pressure Wind Wind Speed Wind Gust Humidity Rainfall Rate (Hourly) solar
00:04 46.2 °F /  7.9 °C 43.8 °F /  6.6 °C 29.95in /  1014.1hPa NNW 2.3mph /  3.7km/h 12mph /  19.3km/h 91% 0.06in /  1.52mm 0 W/m2
00:09 46 °F /  7.8 °C 43.6 °F /  6.4 °C 29.96in /  1014.4hPa NNW 1.1mph /  1.8km/h 8mph /  12.9km/h 91% 0.05in /  1.27mm 0 W/m2
00:14 45.9 °F /  7.7 °C 43.4 °F /  6.3 °C 29.95in /  1014.1hPa NNW 1.2mph /  1.9km/h 8mph /  12.9km/h 91% 0.05in /  1.27mm 0 W/m2
00:19 45.8 °F /  7.7 °C 43.3 °F /  6.3 °C 29.94in /  1013.8hPa NNW 0.8mph /  1.3km/h 8mph /  12.9km/h 91% 0.05in /  1.27mm 0 W/m2
00:24 45.6 °F /  7.6 °C 43.1 °F /  6.2 °C 29.95in /  1014.1hPa NW 1.1mph /  1.8km/h 8mph /  12.9km/h 91% 0.06in /  1.52mm 0 W/m2
00:29 45.4 °F /  7.4 °C 42.9 °F /  6.1 °C 29.95in /  1014.1hPa NW 1.3mph /  2.1km/h 8mph /  12.9km/h 91% 0.06in /  1.52mm 0 W/m2
00:34 45.3 °F /  7.4 °C 42.8 °F /  6 °C 29.95in /  1014.1hPa NW 2.5mph /  4km/h 9mph /  14.5km/h 91% 0.06in /  1.52mm 0 W/m2
00:39 45.1 °F /  7.3 °C 42.7 °F /  5.9 °C 29.95in /  1014.1hPa NW 1.1mph /  1.8km/h 9mph /  14.5km/h 91.1% 0.05in /  1.27mm 0 W/m2
00:44 45 °F /  7.2 °C 42.8 °F /  6 °C 29.95in /  1014.1hPa NNW 0.3mph /  0.5km/h 9mph /  14.5km/h 92% 0.05in /  1.27mm 0 W/m2
00:49 44.9 °F /  7.2 °C 42.6 °F /  5.9 °C 29.95in /  1014.1hPa NNW 1.1mph /  1.8km/h 9mph /  14.5km/h 91.7% 0.06in /  1.52mm 0 W/m2
00:54 44.7 °F /  7.1 °C 42.6 °F /  5.9 °C 29.94in /  1013.8hPa NNW 0.3mph /  0.5km/h 9mph /  14.5km/h 92% 0.07in /  1.78mm 0 W/m2
00:59 44.7 °F /  7.1 °C 42.5 °F /  5.8 °C 29.94in /  1013.8hPa Calm   9mph /  14.5km/h 92% 0.09in /  2.29mm 0 W/m2
01:04 44.5 °F /  6.9 °C 42.3 °F /  5.7 °C 29.94in /  1013.8hPa NNW 0.7mph /  1.1km/h 9mph /  14.5km/h 92% 0.09in /  2.29mm 0 W/m2
01:09 44.2 °F /  6.8 °C 42 °F /  5.6 °C 29.94in /  1013.8hPa NNW 1.8mph /  2.9km/h 10mph /  16.1km/h 91.9% 0.08in /  2.03mm 0 W/m2
01:14 43.9 °F /  6.6 °C 41.5 °F /  5.3 °C 29.93in /  1013.4hPa NNW 1.2mph /  1.9km/h 10mph /  16.1km/h 91.2% 0.09in /  2.29mm 0 W/m2
01:19 43.5 °F /  6.4 °C 41 °F /  5 °C 29.95in /  1014.1hPa NNW 0.6mph /  1km/h 10mph /  16.1km/h 91% 0.10in /  2.54mm 0 W/m2
01:24 43.2 °F /  6.2 °C 40.8 °F /  4.9 °C 29.95in /  1014.1hPa Calm   10mph /  16.1km/h 91% 0.10in /  2.54mm 0 W/m2
01:29 43 °F /  6.1 °C 40.6 °F /  4.8 °C 29.96in /  1014.4hPa Calm   10mph /  16.1km/h 91% 0.10in /  2.54mm 0 W/m2
01:34 42.9 °F /  6.1 °C 40.4 °F /  4.7 °C 29.96in /  1014.4hPa Calm   10mph /  16.1km/h 91% 0.10in /  2.54mm 0 W/m2
01:39 42.7 °F /  5.9 °C 40.3 °F /  4.6 °C 29.96in /  1014.4hPa Calm     91.2% 0.09in /  2.29mm 0 W/m2
01:44 42.6 °F /  5.9 °C 40.4 °F /  4.7 °C 29.95in /  1014.1hPa Calm     92% 0.09in /  2.29mm 0 W/m2
01:49 42.5 °F /  5.8 °C 40.3 °F /  4.6 °C 29.95in /  1014.1hPa Calm     92% 0.09in /  2.29mm 0 W/m2
01:54 42.5 °F /  5.8 °C 40.4 °F /  4.7 °C 29.95in /  1014.1hPa Calm     92% 0.09in /  2.29mm 0 W/m2
01:59 42.6 °F /  5.9 °C 40.4 °F /  4.7 °C 29.96in /  1014.4hPa Calm     92% 0.09in /  2.29mm 0 W/m2
02:04 42.6 °F /  5.9 °C 40.4 °F /  4.7 °C 29.96in /  1014.4hPa Calm     92% 0.09in /  2.29mm 0 W/m2
02:09 42.6 °F /  5.9 °C 40.7 °F /  4.8 °C 29.96in /  1014.4hPa Calm     92.9% 0.04in /  1.02mm 0 W/m2
02:14 42.6 °F /  5.9 °C 40.7 °F /  4.8 °C 29.96in /  1014.4hPa Calm     93% 0.04in /  1.02mm 0 W/m2
02:19 42.6 °F /  5.9 °C 40.7 °F /  4.8 °C 29.94in /  1013.8hPa Calm     93% 0.04in /  1.02mm 0 W/m2
02:24 42.6 °F /  5.9 °C 40.7 °F /  4.8 °C 29.94in /  1013.8hPa Calm     93% 0.04in /  1.02mm 0 W/m2
02:29 42.6 °F /  5.9 °C 40.7 °F /  4.8 °C 29.94in /  1013.8hPa Calm     93% 0.04in /  1.02mm 0 W/m2
02:34 42.6 °F /  5.9 °C 40.7 °F /  4.8 °C 29.95in /  1014.1hPa Calm     93% 0.04in /  1.02mm 0 W/m2
02:39 42.6 °F /  5.9 °C 40.7 °F /  4.8 °C 29.96in /  1014.4hPa Calm     93% 0.01in /  0.25mm 0 W/m2
02:44 42.5 °F /  5.8 °C 40.6 °F /  4.8 °C 29.96in /  1014.4hPa Calm     93% 0.01in /  0.25mm 0 W/m2
02:49 42.5 °F /  5.8 °C 40.6 °F /  4.8 °C 29.96in /  1014.4hPa Calm     93% 0.01in /  0.25mm 0 W/m2
02:54 42.5 °F /  5.8 °C 40.6 °F /  4.8 °C 29.96in /  1014.4hPa Calm     93% 0.01in /  0.25mm 0 W/m2
02:59 42.5 °F /  5.8 °C 40.6 °F /  4.8 °C 29.96in /  1014.4hPa Calm     93% 0.01in /  0.25mm 0 W/m2
03:04 42.4 °F /  5.8 °C 40.5 °F /  4.7 °C 29.96in /  1014.4hPa Calm     93% 0.01in /  0.25mm 0 W/m2
03:09 42.3 °F /  5.7 °C 40.4 °F /  4.7 °C 29.95in /  1014.1hPa Calm     93% 0.00in /  0mm 0 W/m2
03:14 42.2 °F /  5.7 °C 40.3 °F /  4.6 °C 29.95in /  1014.1hPa Calm     93% 0.00in /  0mm 0 W/m2
03:19 42.1 °F /  5.6 °C 40.2 °F /  4.6 °C 29.96in /  1014.4hPa Calm     93% 0.00in /  0mm 0 W/m2
03:24 42.1 °F /  5.6 °C 40.4 °F /  4.7 °C 29.97in /  1014.8hPa Calm     93.9% 0.00in /  0mm 0 W/m2
03:29 42 °F /  5.6 °C 40.3 °F /  4.6 °C 29.97in /  1014.8hPa Calm     93.5% 0.00in /  0mm 0 W/m2
03:34 41.9 °F /  5.5 °C 40 °F /  4.4 °C 29.97in /  1014.8hPa Calm     93% 0.00in /  0mm 0 W/m2
03:39 41.8 °F /  5.4 °C 39.9 °F /  4.4 °C 29.97in /  1014.8hPa Calm     93% 0.00in /  0mm 0 W/m2
03:44 41.7 °F /  5.4 °C 39.9 °F /  4.4 °C 29.98in /  1015.1hPa Calm     93.2% 0.00in /  0mm 0 W/m2
03:49 41.6 °F /  5.3 °C 40 °F /  4.4 °C 29.98in /  1015.1hPa Calm     93.9% 0.00in /  0mm 0 W/m2
03:54 41.5 °F /  5.3 °C 39.9 °F /  4.4 °C 29.99in /  1015.5hPa Calm     94% 0.00in /  0mm 0 W/m2
03:59 41.3 °F /  5.2 °C 39.6 °F /  4.2 °C 29.99in /  1015.5hPa Calm     93.5% 0.00in /  0mm 0 W/m2
04:09 41.1 °F /  5.1 °C 39.5 °F /  4.2 °C 29.99in /  1015.5hPa Calm     94% 0.00in /  0mm 0 W/m2
04:14 40.9 °F /  4.9 °C 39.3 °F /  4.1 °C 29.99in /  1015.5hPa Calm     94% 0.00in /  0mm 0 W/m2
04:19 40.7 °F /  4.8 °C 39.1 °F /  3.9 °C 29.99in /  1015.5hPa Calm     93.9% 0.00in /  0mm 0 W/m2
04:24 40.6 °F /  4.8 °C 39 °F /  3.9 °C 29.99in /  1015.5hPa Calm     94% 0.00in /  0mm 0 W/m2
04:29 40.5 °F /  4.7 °C 38.9 °F /  3.8 °C 29.99in /  1015.5hPa Calm     94% 0.00in /  0mm 0 W/m2
04:34 40.4 °F /  4.7 °C 38.8 °F /  3.8 °C 29.99in /  1015.5hPa Calm     94% 0.00in /  0mm 0 W/m2
04:39 40.2 °F /  4.6 °C 38.6 °F /  3.7 °C 29.99in /  1015.5hPa Calm     94% 0.00in /  0mm 0 W/m2
04:44 40.1 °F /  4.5 °C 38.5 °F /  3.6 °C 29.99in /  1015.5hPa Calm     94% 0.00in /  0mm 0 W/m2
04:49 40 °F /  4.4 °C 38.4 °F /  3.6 °C 29.99in /  1015.5hPa Calm   1mph /  1.6km/h 94% 0.00in /  0mm 0 W/m2
04:54 39.9 °F /  4.4 °C 38.3 °F /  3.5 °C 30.00in /  1015.8hPa Calm   1mph /  1.6km/h 94% 0.00in /  0mm 0 W/m2
04:59 39.9 °F /  4.4 °C 38.3 °F /  3.5 °C 30.00in /  1015.8hPa Calm   1mph /  1.6km/h 94% 0.00in /  0mm 0 W/m2
05:04 39.8 °F /  4.3 °C 38.2 °F /  3.4 °C 30.01in /  1016.1hPa Calm   1mph /  1.6km/h 94% 0.00in /  0mm 0 W/m2
05:09 39.8 °F /  4.3 °C 38.2 °F /  3.4 °C 30.01in /  1016.1hPa Calm     94% 0.00in /  0mm 0 W/m2
05:14 39.8 °F /  4.3 °C 38.2 °F /  3.4 °C 30.01in /  1016.1hPa Calm     94% 0.00in /  0mm 0 W/m2
05:19 39.7 °F /  4.3 °C 38.1 °F /  3.4 °C 30.01in /  1016.1hPa NNW 0.4mph /  0.6km/h 4mph /  6.4km/h 94% 0.00in /  0mm 0 W/m2
05:24 39.7 °F /  4.3 °C 38.1 °F /  3.4 °C 30.01in /  1016.1hPa WNW 0.9mph /  1.4km/h 7mph /  11.3km/h 94% 0.00in /  0mm 0 W/m2
05:29 39.6 °F /  4.2 °C 38 °F /  3.3 °C 30.01in /  1016.1hPa Calm   7mph /  11.3km/h 94% 0.00in /  0mm 0 W/m2
05:34 39.5 °F /  4.2 °C 37.9 °F /  3.3 °C 30.02in /  1016.5hPa WNW 0.9mph /  1.4km/h 7mph /  11.3km/h 94% 0.00in /  0mm 0 W/m2
05:39 39.3 °F /  4.1 °C 37.8 °F /  3.2 °C 30.02in /  1016.5hPa WNW 1.1mph /  1.8km/h 5mph /  8km/h 94% 0.00in /  0mm 0 W/m2
05:44 39.2 °F /  4 °C 37.6 °F /  3.1 °C 30.02in /  1016.5hPa NW 1.9mph /  3.1km/h 6mph /  9.7km/h 94% 0.00in /  0mm 0 W/m2
05:49 39 °F /  3.9 °C 37.4 °F /  3 °C 30.02in /  1016.5hPa WNW 1.9mph /  3.1km/h 9mph /  14.5km/h 94% 0.00in /  0mm 0 W/m2
05:54 38.9 °F /  3.8 °C 37.1 °F /  2.8 °C 30.03in /  1016.8hPa WNW 0.7mph /  1.1km/h 9mph /  14.5km/h 93.4% 0.00in /  0mm 0 W/m2
05:59 38.8 °F /  3.8 °C 37 °F /  2.8 °C 30.03in /  1016.8hPa WNW 0.2mph /  0.3km/h 9mph /  14.5km/h 93% 0.00in /  0mm 0 W/m2
06:04 38.8 °F /  3.8 °C 36.9 °F /  2.7 °C 30.03in /  1016.8hPa Calm   9mph /  14.5km/h 93% 0.00in /  0mm 0 W/m2
06:09 38.7 °F /  3.7 °C 36.8 °F /  2.7 °C 30.03in /  1016.8hPa Calm     93% 0.00in /  0mm 0 W/m2
06:14 38.6 °F /  3.7 °C 36.8 °F /  2.7 °C 30.03in /  1016.8hPa Calm     93% 0.00in /  0mm 0 W/m2
06:19 38.5 °F /  3.6 °C 36.5 °F /  2.5 °C 30.03in /  1016.8hPa Calm     92.7% 0.00in /  0mm 0 W/m2
06:24 38.4 °F /  3.6 °C 36.3 °F /  2.4 °C 30.03in /  1016.8hPa Calm     92% 0.00in /  0mm 0 W/m2
06:29 38.3 °F /  3.5 °C 36.2 °F /  2.3 °C 30.03in /  1016.8hPa Calm     92% 0.00in /  0mm 0 W/m2
06:34 38.2 °F /  3.4 °C 36.1 °F /  2.3 °C 30.04in /  1017.2hPa Calm     92% 0.00in /  0mm 0 W/m2
06:39 38.1 °F /  3.4 °C 36 °F /  2.2 °C 30.04in /  1017.2hPa Calm     92% 0.00in /  0mm 0 W/m2
06:44 38 °F /  3.3 °C 35.9 °F /  2.2 °C 30.04in /  1017.2hPa Calm     92% 0.00in /  0mm 0 W/m2
06:49 37.9 °F /  3.3 °C 35.8 °F /  2.1 °C 30.04in /  1017.2hPa Calm     92% 0.00in /  0mm 7 W/m2
06:54 37.9 °F /  3.3 °C 35.9 °F /  2.2 °C 30.05in /  1017.5hPa Calm     92.5% 0.00in /  0mm 9 W/m2
06:59 37.9 °F /  3.3 °C 36.1 °F /  2.3 °C 30.05in /  1017.5hPa Calm     93% 0.00in /  0mm 9 W/m2
07:04 38 °F /  3.3 °C 36.2 °F /  2.3 °C 30.05in /  1017.5hPa Calm     93% 0.00in /  0mm 12 W/m2
07:09 38 °F /  3.3 °C 36.2 °F /  2.3 °C 30.05in /  1017.5hPa Calm     93% 0.00in /  0mm 19 W/m2
07:14 38 °F /  3.3 °C 36.2 °F /  2.3 °C 30.06in /  1017.8hPa Calm     93% 0.00in /  0mm 19 W/m2
07:19 38.2 °F /  3.4 °C 36.3 °F /  2.4 °C 30.06in /  1017.8hPa Calm     93% 0.00in /  0mm 21 W/m2
07:24 38.3 °F /  3.5 °C 36.5 °F /  2.5 °C 30.06in /  1017.8hPa Calm     93% 0.00in /  0mm 32 W/m2
07:29 38.4 °F /  3.6 °C 36.8 °F /  2.7 °C 30.06in /  1017.8hPa Calm     93.6% 0.00in /  0mm 32 W/m2
07:34 38.6 °F /  3.7 °C 37 °F /  2.8 °C 30.07in /  1018.2hPa WNW 0.1mph /  0.2km/h 2mph /  3.2km/h 94% 0.00in /  0mm 25 W/m2
07:39 38.7 °F /  3.7 °C 37.1 °F /  2.8 °C 30.07in /  1018.2hPa WNW 0.5mph /  0.8km/h 2mph /  3.2km/h 94% 0.00in /  0mm 26 W/m2
07:44 38.8 °F /  3.8 °C 37.2 °F /  2.9 °C 30.07in /  1018.2hPa Calm   2mph /  3.2km/h 94% 0.00in /  0mm 30 W/m2
07:49 38.9 °F /  3.8 °C 37.4 °F /  3 °C 30.07in /  1018.2hPa Calm   2mph /  3.2km/h 94% 0.00in /  0mm 37 W/m2
07:54 39.1 °F /  3.9 °C 37.5 °F /  3.1 °C 30.07in /  1018.2hPa WNW 0.2mph /  0.3km/h 4mph /  6.4km/h 94% 0.00in /  0mm 39 W/m2
07:59 39.2 °F /  4 °C 37.6 °F /  3.1 °C 30.08in /  1018.5hPa Calm   4mph /  6.4km/h 94% 0.00in /  0mm 37 W/m2
08:09 39.4 °F /  4.1 °C 37.9 °F /  3.3 °C 30.08in /  1018.5hPa WNW 0.1mph /  0.2km/h 2mph /  3.2km/h 94% 0.00in /  0mm 114 W/m2
08:14 39.6 °F /  4.2 °C 38 °F /  3.3 °C 30.08in /  1018.5hPa WNW 0.3mph /  0.5km/h 4mph /  6.4km/h 94% 0.00in /  0mm 220 W/m2
08:19 40.3 °F /  4.6 °C 38.8 °F /  3.8 °C 30.08in /  1018.5hPa WNW 0.5mph /  0.8km/h 4mph /  6.4km/h 94.3% 0.00in /  0mm 241 W/m2
08:24 41.2 °F /  5.1 °C 39.9 °F /  4.4 °C 30.08in /  1018.5hPa WNW 0.1mph /  0.2km/h 4mph /  6.4km/h 95% 0.00in /  0mm 246 W/m2
08:29 42.2 °F /  5.7 °C 40.9 °F /  4.9 °C 30.09in /  1018.8hPa WNW 0.7mph /  1.1km/h 5mph /  8km/h 95% 0.00in /  0mm 258 W/m2
08:34 42.7 °F /  5.9 °C 41.1 °F /  5.1 °C 30.09in /  1018.8hPa West 1.1mph /  1.8km/h 5mph /  8km/h 93.9% 0.00in /  0mm 128 W/m2
08:39 42.9 °F /  6.1 °C 40.7 °F /  4.8 °C 30.10in /  1019.2hPa West 0.7mph /  1.1km/h 5mph /  8km/h 91.8% 0.00in /  0mm 105 W/m2
08:44 42.8 °F /  6 °C 39.9 °F /  4.4 °C 30.10in /  1019.2hPa West 0.8mph /  1.3km/h 5mph /  8km/h 89.6% 0.00in /  0mm 47 W/m2
08:49 42.5 °F /  5.8 °C 39.2 °F /  4 °C 30.10in /  1019.2hPa West 0.6mph /  1km/h 5mph /  8km/h 88% 0.00in /  0mm 295 W/m2
08:54 42.7 °F /  5.9 °C 39.4 °F /  4.1 °C 30.10in /  1019.2hPa West 2.3mph /  3.7km/h 9mph /  14.5km/h 88% 0.00in /  0mm 287 W/m2
08:59 43 °F /  6.1 °C 39.4 °F /  4.1 °C 30.10in /  1019.2hPa West 0.3mph /  0.5km/h 9mph /  14.5km/h 87.1% 0.00in /  0mm 271 W/m2
09:04 43.3 °F /  6.3 °C 39.5 °F /  4.2 °C 30.10in /  1019.2hPa West 0.1mph /  0.2km/h 9mph /  14.5km/h 86.3% 0.00in /  0mm 211 W/m2
09:09 43.6 °F /  6.4 °C 39.4 °F /  4.1 °C 30.11in /  1019.5hPa West 0.8mph /  1.3km/h 5mph /  8km/h 85% 0.00in /  0mm 134 W/m2
09:14 43.7 °F /  6.5 °C 39.2 °F /  4 °C 30.11in /  1019.5hPa West 0.3mph /  0.5km/h 5mph /  8km/h 84% 0.00in /  0mm 132 W/m2
09:19 43.9 °F /  6.6 °C 39.4 °F /  4.1 °C 30.11in /  1019.5hPa West 0.1mph /  0.2km/h 5mph /  8km/h 84% 0.00in /  0mm 142 W/m2
09:24 44.1 °F /  6.7 °C 39.3 °F /  4.1 °C 30.11in /  1019.5hPa Calm   5mph /  8km/h 83.1% 0.00in /  0mm 258 W/m2
09:29 44.2 °F /  6.8 °C 38.9 °F /  3.8 °C 30.11in /  1019.5hPa West 4.2mph /  6.8km/h 12mph /  19.3km/h 81.3% 0.00in /  0mm 220 W/m2
09:34 44.3 °F /  6.8 °C 37.5 °F /  3.1 °C 30.11in /  1019.5hPa NW 1.3mph /  2.1km/h 12mph /  19.3km/h 76.8% 0.00in /  0mm 144 W/m2
09:39 44.3 °F /  6.8 °C 36.9 °F /  2.7 °C 30.12in /  1019.9hPa NW 3.4mph /  5.5km/h 11mph /  17.7km/h 75.2% 0.00in /  0mm 174 W/m2
09:44 44.3 °F /  6.8 °C 36.4 °F /  2.4 °C 30.12in /  1019.9hPa West 2.3mph /  3.7km/h 11mph /  17.7km/h 73.3% 0.00in /  0mm 199 W/m2
09:49 44.4 °F /  6.9 °C 35.6 °F /  2 °C 30.12in /  1019.9hPa West 3.3mph /  5.3km/h 12mph /  19.3km/h 70.9% 0.00in /  0mm 236 W/m2
09:54 44.5 °F /  6.9 °C 35 °F /  1.7 °C 30.12in /  1019.9hPa WNW 3.4mph /  5.5km/h 12mph /  19.3km/h 69.3% 0.00in /  0mm 297 W/m2
09:59 44.7 °F /  7.1 °C 34.7 °F /  1.5 °C 30.12in /  1019.9hPa WNW 4.7mph /  7.6km/h 16mph /  25.7km/h 67.7% 0.00in /  0mm 343 W/m2
10:04 45.3 °F /  7.4 °C 35.1 °F /  1.7 °C 30.13in /  1020.2hPa WNW 4.8mph /  7.7km/h 16mph /  25.7km/h 67.3% 0.00in /  0mm 468 W/m2
10:09 45.9 °F /  7.7 °C 34.6 °F /  1.4 °C 30.13in /  1020.2hPa WNW 7.8mph /  12.6km/h 17mph /  27.4km/h 64.4% 0.00in /  0mm 468 W/m2
10:14 46.4 °F /  8 °C 34 °F /  1.1 °C 30.13in /  1020.2hPa West 7.1mph /  11.4km/h 17mph /  27.4km/h 61.9% 0.00in /  0mm 499 W/m2
10:19 47 °F /  8.3 °C 34.5 °F /  1.4 °C 30.13in /  1020.2hPa WNW 7.9mph /  12.7km/h 17mph /  27.4km/h 61.7% 0.00in /  0mm 512 W/m2
10:24 47.5 °F /  8.6 °C 33.9 °F /  1.1 °C 30.13in /  1020.2hPa WNW 8.3mph /  13.4km/h 17mph /  27.4km/h 58.9% 0.00in /  0mm 524 W/m2
10:29 47.8 °F /  8.8 °C 33.5 °F /  0.8 °C 30.13in /  1020.2hPa WNW 10.3mph /  16.6km/h 18mph /  29km/h 57.5% 0.00in /  0mm 524 W/m2
10:34 47.7 °F /  8.7 °C 33.3 °F /  0.7 °C 30.14in /  1020.5hPa WNW 7.9mph /  12.7km/h 19mph /  30.6km/h 57.2% 0.00in /  0mm 504 W/m2
10:39 47.6 °F /  8.7 °C 33.5 °F /  0.8 °C 30.14in /  1020.5hPa WNW 9.6mph /  15.4km/h 19mph /  30.6km/h 57.8% 0.00in /  0mm 496 W/m2
10:44 47.8 °F /  8.8 °C 33.3 °F /  0.7 °C 30.14in /  1020.5hPa WNW 7.4mph /  11.9km/h 19mph /  30.6km/h 57% 0.00in /  0mm 332 W/m2
10:49 47.9 °F /  8.8 °C 33.7 °F /  0.9 °C 30.14in /  1020.5hPa WNW 6.9mph /  11.1km/h 19mph /  30.6km/h 57.5% 0.00in /  0mm 253 W/m2
10:54 47.9 °F /  8.8 °C 33.4 °F /  0.8 °C 30.14in /  1020.5hPa West 6.7mph /  10.8km/h 22mph /  35.4km/h 57.1% 0.00in /  0mm 223 W/m2
10:59 47.8 °F /  8.8 °C 33.4 °F /  0.8 °C 30.14in /  1020.5hPa WNW 8.6mph /  13.8km/h 22mph /  35.4km/h 57.1% 0.00in /  0mm 253 W/m2
11:04 47.7 °F /  8.7 °C 32.8 °F /  0.4 °C 30.14in /  1020.5hPa NW 9.1mph /  14.6km/h 22mph /  35.4km/h 56.2% 0.00in /  0mm 439 W/m2
11:09 47.6 °F /  8.7 °C 32.8 °F /  0.4 °C 30.14in /  1020.5hPa WNW 9.5mph /  15.3km/h 18mph /  29km/h 56.2% 0.00in /  0mm 439 W/m2
11:14 47.4 °F /  8.6 °C 32.6 °F /  0.3 °C 30.14in /  1020.5hPa WNW 5.1mph /  8.2km/h 18mph /  29km/h 56.3% 0.00in /  0mm 186 W/m2
11:19 46.9 °F /  8.3 °C 31.9 °F /  -0.1 °C 30.15in /  1020.9hPa WNW 9.2mph /  14.8km/h 21mph /  33.8km/h 55.6% 0.00in /  0mm 299 W/m2
11:24 46.5 °F /  8.1 °C 31.7 °F /  -0.2 °C 30.15in /  1020.9hPa WNW 10mph /  16.1km/h 21mph /  33.8km/h 56.1% 0.00in /  0mm 290 W/m2
11:29 46.3 °F /  7.9 °C 31.7 °F /  -0.2 °C 30.15in /  1020.9hPa NW 6.7mph /  10.8km/h 21mph /  33.8km/h 56.4% 0.00in /  0mm 179 W/m2
11:34 46.3 °F /  7.9 °C 32.1 °F /  0.1 °C 30.15in /  1020.9hPa NW 5mph /  8km/h 21mph /  33.8km/h 57.3% 0.00in /  0mm 276 W/m2
11:39 46.6 °F /  8.1 °C 32.5 °F /  0.3 °C 30.15in /  1020.9hPa NW 6.7mph /  10.8km/h 17mph /  27.4km/h 57.7% 0.00in /  0mm 188 W/m2
11:44 46.8 °F /  8.2 °C 32.2 °F /  0.1 °C 30.15in /  1020.9hPa NW 6.3mph /  10.1km/h 17mph /  27.4km/h 56.6% 0.00in /  0mm 276 W/m2
11:49 46.8 °F /  8.2 °C 31.9 °F /  -0.1 °C 30.15in /  1020.9hPa WNW 10.1mph /  16.3km/h 19mph /  30.6km/h 55.9% 0.00in /  0mm 223 W/m2
11:54 46.4 °F /  8 °C 31.6 °F /  -0.2 °C 30.15in /  1020.9hPa NW 6.7mph /  10.8km/h 24mph /  38.6km/h 56.1% 0.00in /  0mm 185 W/m2
11:59 46.1 °F /  7.8 °C 31.9 °F /  -0.1 °C 30.15in /  1020.9hPa NW 8.7mph /  14km/h 24mph /  38.6km/h 57.3% 0.00in /  0mm 149 W/m2
12:00 46 °F /  7.8 °C 31.6 °F /  -0.2 °C 30.15in /  1020.9hPa NW 12mph /  19.3km/h 24mph /  38.6km/h 57% 0.00in /  0mm 120 W/m2
12:09 45.8 °F /  7.7 °C 31.9 °F /  -0.1 °C 30.15in /  1020.9hPa WNW 9.4mph /  15.1km/h 19mph /  30.6km/h 58% 0.00in /  0mm 174 W/m2
12:14 45.8 °F /  7.7 °C 31.9 °F /  -0.1 °C 30.15in /  1020.9hPa WNW 8.6mph /  13.8km/h 19mph /  30.6km/h 58.2% 0.00in /  0mm 223 W/m2
12:19 45.7 °F /  7.6 °C 31.9 °F /  -0.1 °C 30.15in /  1020.9hPa WNW 7.2mph /  11.6km/h 19mph /  30.6km/h 58.2% 0.00in /  0mm 130 W/m2
12:24 45.6 °F /  7.6 °C 31.8 °F /  -0.1 °C 30.15in /  1020.9hPa WNW 11mph /  17.7km/h 20mph /  32.2km/h 58.1% 0.00in /  0mm 151 W/m2
12:29 45.5 °F /  7.5 °C 31.2 °F /  -0.4 °C 30.15in /  1020.9hPa WNW 11.2mph /  18km/h 20mph /  32.2km/h 57% 0.00in /  0mm 185 W/m2
12:34 45.4 °F /  7.4 °C 31.3 °F /  -0.4 °C 30.15in /  1020.9hPa WNW 9.6mph /  15.4km/h 20mph /  32.2km/h 57.4% 0.00in /  0mm 171 W/m2
12:39 45.5 °F /  7.5 °C 31.6 °F /  -0.2 °C 30.15in /  1020.9hPa WNW 8.7mph /  14km/h 19mph /  30.6km/h 58% 0.00in /  0mm 171 W/m2
12:44 45.7 °F /  7.6 °C 31.6 °F /  -0.2 °C 30.15in /  1020.9hPa WNW 7.6mph /  12.2km/h 19mph /  30.6km/h 57.6% 0.00in /  0mm 120 W/m2
12:49 45.7 °F /  7.6 °C 31.5 °F /  -0.3 °C 30.15in /  1020.9hPa NW 4.8mph /  7.7km/h 19mph /  30.6km/h 57.2% 0.00in /  0mm 125 W/m2
12:54 45.8 °F /  7.7 °C 31.5 °F /  -0.3 °C 30.15in /  1020.9hPa WNW 5mph /  8km/h 19mph /  30.6km/h 57.2% 0.00in /  0mm 127 W/m2
12:59 45.9 °F /  7.7 °C 31.7 °F /  -0.2 °C 30.15in /  1020.9hPa WNW 6.2mph /  10km/h 19mph /  30.6km/h 57.3% 0.00in /  0mm 162 W/m2
13:04 46 °F /  7.8 °C 31.7 °F /  -0.2 °C 30.15in /  1020.9hPa West 4.8mph /  7.7km/h 19mph /  30.6km/h 57.2% 0.00in /  0mm 144 W/m2
13:09 46.2 °F /  7.9 °C 31.6 °F /  -0.2 °C 30.15in /  1020.9hPa WNW 5.3mph /  8.5km/h 12mph /  19.3km/h 56.5% 0.00in /  0mm 141 W/m2
13:14 46.5 °F /  8.1 °C 31.9 °F /  -0.1 °C 30.15in /  1020.9hPa WNW 9mph /  14.5km/h 16mph /  25.7km/h 56.4% 0.00in /  0mm 163 W/m2
13:19 46.9 °F /  8.3 °C 31.6 °F /  -0.2 °C 30.15in /  1020.9hPa WNW 6.7mph /  10.8km/h 17mph /  27.4km/h 55% 0.00in /  0mm 90 W/m2
13:24 47.1 °F /  8.4 °C 31.5 °F /  -0.3 °C 30.15in /  1020.9hPa WNW 10.5mph /  16.9km/h 24mph /  38.6km/h 54.4% 0.00in /  0mm 44 W/m2
13:29 47 °F /  8.3 °C 30.8 °F /  -0.7 °C 30.16in /  1021.2hPa WNW 13mph /  20.9km/h 25mph /  40.2km/h 53.1% 0.00in /  0mm 204 W/m2
13:34 47 °F /  8.3 °C 30.7 °F /  -0.7 °C 30.16in /  1021.2hPa WNW 11.1mph /  17.9km/h 25mph /  40.2km/h 53% 0.00in /  0mm 204 W/m2
13:39 46.8 °F /  8.2 °C 31 °F /  -0.6 °C 30.16in /  1021.2hPa WNW 5.3mph /  8.5km/h 23mph /  37km/h 53.8% 0.00in /  0mm 142 W/m2
13:44 46.9 °F /  8.3 °C 31.4 °F /  -0.3 °C 30.16in /  1021.2hPa WNW 7.3mph /  11.7km/h 23mph /  37km/h 54.5% 0.00in /  0mm 243 W/m2
13:49 46.9 °F /  8.3 °C 31.1 °F /  -0.5 °C 30.16in /  1021.2hPa WNW 5mph /  8km/h 23mph /  37km/h 53.8% 0.00in /  0mm 193 W/m2
13:54 46.9 °F /  8.3 °C 31.1 °F /  -0.5 °C 30.16in /  1021.2hPa WNW 6.7mph /  10.8km/h 23mph /  37km/h 54% 0.00in /  0mm 144 W/m2
13:59 46.9 °F /  8.3 °C 31.2 °F /  -0.4 °C 30.16in /  1021.2hPa WNW 6.4mph /  10.3km/h 23mph /  37km/h 54.2% 0.00in /  0mm 246 W/m2
14:04 47 °F /  8.3 °C 31.2 °F /  -0.4 °C 30.16in /  1021.2hPa WNW 7.8mph /  12.6km/h 23mph /  37km/h 54% 0.00in /  0mm 163 W/m2
14:09 47 °F /  8.3 °C 30.9 °F /  -0.6 °C 30.16in /  1021.2hPa NW 7.6mph /  12.2km/h 18mph /  29km/h 53.2% 0.00in /  0mm 114 W/m2
14:14 46.9 °F /  8.3 °C 31.2 °F /  -0.4 °C 30.16in /  1021.2hPa WNW 5.1mph /  8.2km/h 18mph /  29km/h 54.1% 0.00in /  0mm 72 W/m2
14:19 47 °F /  8.3 °C 31.2 °F /  -0.4 °C 30.17in /  1021.6hPa WNW 8mph /  12.9km/h 18mph /  29km/h 54% 0.00in /  0mm 70 W/m2
14:24 47 °F /  8.3 °C 30.8 °F /  -0.7 °C 30.17in /  1021.6hPa NW 4.9mph /  7.9km/h 18mph /  29km/h 53.1% 0.00in /  0mm 125 W/m2
14:29 46.9 °F /  8.3 °C 30.8 °F /  -0.7 °C 30.17in /  1021.6hPa NW 5.9mph /  9.5km/h 18mph /  29km/h 53.3% 0.00in /  0mm 125 W/m2
14:34 46.9 °F /  8.3 °C 30.2 °F /  -1 °C 30.17in /  1021.6hPa WNW 8mph /  12.9km/h 18mph /  29km/h 51.9% 0.00in /  0mm 88 W/m2
14:39 46.9 °F /  8.3 °C 29.9 °F /  -1.2 °C 30.17in /  1021.6hPa WNW 9.8mph /  15.8km/h 16mph /  25.7km/h 51.3% 0.00in /  0mm 49 W/m2
14:44 46.9 °F /  8.3 °C 30 °F /  -1.1 °C 30.17in /  1021.6hPa West 8.5mph /  13.7km/h 21mph /  33.8km/h 51.5% 0.00in /  0mm 44 W/m2
14:49 46.9 °F /  8.3 °C 29.9 °F /  -1.2 °C 30.17in /  1021.6hPa WNW 7.4mph /  11.9km/h 21mph /  33.8km/h 51.3% 0.00in /  0mm 46 W/m2
14:54 46.9 °F /  8.3 °C 30.2 °F /  -1 °C 30.17in /  1021.6hPa WNW 5.9mph /  9.5km/h 21mph /  33.8km/h 52.1% 0.00in /  0mm 32 W/m2
14:59 46.8 °F /  8.2 °C 30.3 °F /  -0.9 °C 30.17in /  1021.6hPa WNW 5.5mph /  8.9km/h 21mph /  33.8km/h 52.4% 0.00in /  0mm 39 W/m2
15:04 46.7 °F /  8.2 °C 30.3 °F /  -0.9 °C 30.17in /  1021.6hPa WNW 5.9mph /  9.5km/h 21mph /  33.8km/h 52.6% 0.00in /  0mm 35 W/m2
15:09 46.5 °F /  8.1 °C 30.1 °F /  -1.1 °C 30.18in /  1021.9hPa West 8.3mph /  13.4km/h 19mph /  30.6km/h 52.5% 0.00in /  0mm 44 W/m2
15:14 46.4 °F /  8 °C 29.7 °F /  -1.3 °C 30.18in /  1021.9hPa WNW 8.7mph /  14km/h 19mph /  30.6km/h 52% 0.00in /  0mm 51 W/m2
15:19 46.2 °F /  7.9 °C 29.6 °F /  -1.3 °C 30.19in /  1022.2hPa WNW 8.6mph /  13.8km/h 19mph /  30.6km/h 52% 0.00in /  0mm 54 W/m2
15:24 46.1 °F /  7.8 °C 30 °F /  -1.1 °C 30.19in /  1022.2hPa West 5.3mph /  8.5km/h 19mph /  30.6km/h 53% 0.00in /  0mm 47 W/m2
15:29 46.1 °F /  7.8 °C 29.8 °F /  -1.2 °C 30.19in /  1022.2hPa West 8mph /  12.9km/h 19mph /  30.6km/h 52.7% 0.00in /  0mm 65 W/m2
15:34 46.1 °F /  7.8 °C 29.9 °F /  -1.2 °C 30.19in /  1022.2hPa WNW 9.4mph /  15.1km/h 19mph /  30.6km/h 52.9% 0.00in /  0mm 67 W/m2
15:39 46.1 °F /  7.8 °C 30 °F /  -1.1 °C 30.20in /  1022.6hPa NW 3.7mph /  6km/h 16mph /  25.7km/h 53.3% 0.00in /  0mm 49 W/m2
15:44 46 °F /  7.8 °C 30.3 °F /  -0.9 °C 30.20in /  1022.6hPa WNW 6.8mph /  10.9km/h 16mph /  25.7km/h 54% 0.00in /  0mm 53 W/m2
15:49 45.9 °F /  7.7 °C 30.5 °F /  -0.8 °C 30.21in /  1022.9hPa WNW 5.2mph /  8.4km/h 16mph /  25.7km/h 54.5% 0.00in /  0mm 30 W/m2
15:54 45.8 °F /  7.7 °C 30.4 °F /  -0.9 °C 30.21in /  1022.9hPa WNW 5.2mph /  8.4km/h 19mph /  30.6km/h 54.7% 0.00in /  0mm 26 W/m2
15:59 45.6 °F /  7.6 °C 30.4 °F /  -0.9 °C 30.21in /  1022.9hPa WNW 6mph /  9.7km/h 19mph /  30.6km/h 55.2% 0.00in /  0mm 19 W/m2
16:00 45.4 °F /  7.4 °C 30.2 °F /  -1 °C 30.21in /  1022.9hPa WNW 4mph /  6.4km/h 19mph /  30.6km/h 55% 0.00in /  0mm 11 W/m2
16:09 45 °F /  7.2 °C 30.7 °F /  -0.7 °C 30.22in /  1023.2hPa West 4.7mph /  7.6km/h 13mph /  20.9km/h 57% 0.00in /  0mm 9 W/m2
16:14 44.7 °F /  7.1 °C 30.6 °F /  -0.8 °C 30.22in /  1023.2hPa WNW 7.3mph /  11.7km/h 15mph /  24.1km/h 57.4% 0.00in /  0mm 7 W/m2
16:19 44.3 °F /  6.8 °C 30.7 °F /  -0.7 °C 30.22in /  1023.2hPa WNW 7.3mph /  11.7km/h 17mph /  27.4km/h 58.4% 0.00in /  0mm 5 W/m2
16:24 44.1 °F /  6.7 °C 30.7 °F /  -0.7 °C 30.22in /  1023.2hPa WNW 3.8mph /  6.1km/h 17mph /  27.4km/h 59.2% 0.00in /  0mm 0 W/m2
16:29 43.8 °F /  6.6 °C 30.8 °F /  -0.7 °C 30.22in /  1023.2hPa WNW 4.6mph /  7.4km/h 17mph /  27.4km/h 60% 0.00in /  0mm 0 W/m2
16:34 43.5 °F /  6.4 °C 30.8 °F /  -0.7 °C 30.23in /  1023.6hPa WNW 0.9mph /  1.4km/h 17mph /  27.4km/h 60.5% 0.00in /  0mm 0 W/m2
16:39 43.4 °F /  6.3 °C 30.9 °F /  -0.6 °C 30.23in /  1023.6hPa WNW 0.7mph /  1.1km/h 4mph /  6.4km/h 61.1% 0.00in /  0mm 0 W/m2
16:44 43.2 °F /  6.2 °C 31.1 °F /  -0.5 °C 30.24in /  1023.9hPa NW 0.6mph /  1km/h 4mph /  6.4km/h 62% 0.00in /  0mm 0 W/m2
16:49 43 °F /  6.1 °C 31.5 °F /  -0.3 °C 30.24in /  1023.9hPa North 0.1mph /  0.2km/h 4mph /  6.4km/h 63.4% 0.00in /  0mm 0 W/m2
16:54 42.9 °F /  6.1 °C 31.9 °F /  -0.1 °C 30.24in /  1023.9hPa North 0.1mph /  0.2km/h 4mph /  6.4km/h 64.7% 0.00in /  0mm 0 W/m2
16:59 42.8 °F /  6 °C 32.1 °F /  0.1 °C 30.24in /  1023.9hPa North 0.2mph /  0.3km/h 4mph /  6.4km/h 65.8% 0.00in /  0mm 0 W/m2
17:04 42.6 °F /  5.9 °C 32.3 °F /  0.2 °C 30.25in /  1024.3hPa NNW 0.9mph /  1.4km/h 5mph /  8km/h 66.8% 0.00in /  0mm 0 W/m2
17:09 42.3 °F /  5.7 °C 32.5 °F /  0.3 °C 30.25in /  1024.3hPa NW 0.5mph /  0.8km/h 5mph /  8km/h 67.8% 0.00in /  0mm 0 W/m2
17:14 42.2 °F /  5.7 °C 32.6 °F /  0.3 °C 30.26in /  1024.6hPa NNW 1mph /  1.6km/h 5mph /  8km/h 68.8% 0.00in /  0mm 0 W/m2
17:19 42 °F /  5.6 °C 32.9 °F /  0.5 °C 30.26in /  1024.6hPa NNW 1.9mph /  3.1km/h 13mph /  20.9km/h 69.9% 0.00in /  0mm 0 W/m2
17:24 41.8 °F /  5.4 °C 33 °F /  0.6 °C 30.26in /  1024.6hPa NW 2.2mph /  3.5km/h 13mph /  20.9km/h 70.7% 0.00in /  0mm 0 W/m2
17:29 41.6 °F /  5.3 °C 32.9 °F /  0.5 °C 30.26in /  1024.6hPa NW 1.9mph /  3.1km/h 13mph /  20.9km/h 71% 0.00in /  0mm 0 W/m2
17:34 41.4 °F /  5.2 °C 32.8 °F /  0.4 °C 30.26in /  1024.6hPa WNW 1.1mph /  1.8km/h 13mph /  20.9km/h 71% 0.00in /  0mm 0 W/m2
17:39 41.3 °F /  5.2 °C 32.8 °F /  0.4 °C 30.26in /  1024.6hPa NW 2.6mph /  4.2km/h 13mph /  20.9km/h 71.5% 0.00in /  0mm 0 W/m2
17:44 41.1 °F /  5.1 °C 32.6 °F /  0.3 °C 30.27in /  1024.9hPa WNW 4.7mph /  7.6km/h 14mph /  22.5km/h 71.3% 0.00in /  0mm 0 W/m2
17:49 41.1 °F /  5.1 °C 31.7 °F /  -0.2 °C 30.27in /  1024.9hPa WNW 9.1mph /  14.6km/h 18mph /  29km/h 69% 0.00in /  0mm 0 W/m2
17:54 41.2 °F /  5.1 °C 31.3 °F /  -0.4 °C 30.28in /  1025.3hPa NW 5.7mph /  9.2km/h 22mph /  35.4km/h 67.5% 0.00in /  0mm 0 W/m2
17:59 41.3 °F /  5.2 °C 31.2 °F /  -0.4 °C 30.28in /  1025.3hPa WNW 7.6mph /  12.2km/h 22mph /  35.4km/h 67% 0.00in /  0mm 0 W/m2
18:04 41.3 °F /  5.2 °C 30.9 °F /  -0.6 °C 30.28in /  1025.3hPa NW 5.2mph /  8.4km/h 22mph /  35.4km/h 66.3% 0.00in /  0mm 0 W/m2
18:09 41.2 °F /  5.1 °C 30.7 °F /  -0.7 °C 30.29in /  1025.6hPa NW 1.5mph /  2.4km/h 14mph /  22.5km/h 66% 0.00in /  0mm 0 W/m2
18:14 41.1 °F /  5.1 °C 30.6 °F /  -0.8 °C 30.29in /  1025.6hPa NW 1.6mph /  2.6km/h 14mph /  22.5km/h 66% 0.00in /  0mm 0 W/m2
18:19 41 °F /  5 °C 30.6 °F /  -0.8 °C 30.29in /  1025.6hPa NNW 1.3mph /  2.1km/h 14mph /  22.5km/h 66.3% 0.00in /  0mm 0 W/m2
18:24 40.9 °F /  4.9 °C 30.8 °F /  -0.7 °C 30.29in /  1025.6hPa NNW 0.3mph /  0.5km/h 14mph /  22.5km/h 67% 0.00in /  0mm 0 W/m2
18:29 40.7 °F /  4.8 °C 30.7 °F /  -0.7 °C 30.30in /  1026hPa NNW 0.4mph /  0.6km/h 14mph /  22.5km/h 67% 0.00in /  0mm 0 W/m2
18:34 40.6 °F /  4.8 °C 30.5 °F /  -0.8 °C 30.30in /  1026hPa NNW 0.5mph /  0.8km/h 14mph /  22.5km/h 67% 0.00in /  0mm 0 W/m2
18:39 40.4 °F /  4.7 °C 30.6 °F /  -0.8 °C 30.30in /  1026hPa NNW 0.2mph /  0.3km/h 3mph /  4.8km/h 67.7% 0.00in /  0mm 0 W/m2
18:44 40.3 °F /  4.6 °C 30.6 °F /  -0.8 °C 30.30in /  1026hPa NNW 0.5mph /  0.8km/h 4mph /  6.4km/h 68% 0.00in /  0mm 0 W/m2
18:49 40.2 °F /  4.6 °C 30.9 °F /  -0.6 °C 30.31in /  1026.3hPa NNW 0.2mph /  0.3km/h 4mph /  6.4km/h 69% 0.00in /  0mm 0 W/m2
18:54 40.2 °F /  4.6 °C 30.8 °F /  -0.7 °C 30.31in /  1026.3hPa NNW 0.1mph /  0.2km/h 4mph /  6.4km/h 69% 0.00in /  0mm 0 W/m2
18:59 40.1 °F /  4.5 °C 30.9 °F /  -0.6 °C 30.31in /  1026.3hPa WNW 1.3mph /  2.1km/h 8mph /  12.9km/h 69.4% 0.00in /  0mm 0 W/m2
19:04 40.1 °F /  4.5 °C 31 °F /  -0.6 °C 30.31in /  1026.3hPa NW 2.5mph /  4km/h 12mph /  19.3km/h 69.8% 0.00in /  0mm 0 W/m2
19:09 40 °F /  4.4 °C 30.6 °F /  -0.8 °C 30.31in /  1026.3hPa NW 3.1mph /  5km/h 12mph /  19.3km/h 68.8% 0.00in /  0mm 0 W/m2
19:14 40.1 °F /  4.5 °C 30.4 °F /  -0.9 °C 30.31in /  1026.3hPa NW 4.3mph /  6.9km/h 14mph /  22.5km/h 68% 0.00in /  0mm 0 W/m2
19:19 40.1 °F /  4.5 °C 29.7 °F /  -1.3 °C 30.32in /  1026.6hPa NW 4.1mph /  6.6km/h 14mph /  22.5km/h 66.2% 0.00in /  0mm 0 W/m2
19:24 40.2 °F /  4.6 °C 29.7 °F /  -1.3 °C 30.32in /  1026.6hPa NW 5.7mph /  9.2km/h 18mph /  29km/h 65.9% 0.00in /  0mm 0 W/m2
19:29 40.2 °F /  4.6 °C 29.3 °F /  -1.5 °C 30.32in /  1026.6hPa NW 6.2mph /  10km/h 18mph /  29km/h 64.8% 0.00in /  0mm 0 W/m2
19:34 40.3 °F /  4.6 °C 29.3 °F /  -1.5 °C 30.32in /  1026.6hPa WNW 5mph /  8km/h 19mph /  30.6km/h 64.6% 0.00in /  0mm 0 W/m2
19:39 40.2 °F /  4.6 °C 29 °F /  -1.7 °C 30.32in /  1026.6hPa NW 3.6mph /  5.8km/h 19mph /  30.6km/h 64% 0.00in /  0mm 0 W/m2
19:44 40.2 °F /  4.6 °C 29 °F /  -1.7 °C 30.32in /  1026.6hPa NW 4.5mph /  7.2km/h 19mph /  30.6km/h 64% 0.00in /  0mm 0 W/m2
19:49 40.1 °F /  4.5 °C 28.9 °F /  -1.7 °C 30.33in /  1027hPa WNW 3.1mph /  5km/h 19mph /  30.6km/h 64% 0.00in /  0mm 0 W/m2
19:54 40 °F /  4.4 °C 28.8 °F /  -1.8 °C 30.33in /  1027hPa WNW 4.6mph /  7.4km/h 19mph /  30.6km/h 64% 0.00in /  0mm 0 W/m2
19:59 39.9 °F /  4.4 °C 28.7 °F /  -1.8 °C 30.33in /  1027hPa WNW 6.2mph /  10km/h 19mph /  30.6km/h 64% 0.00in /  0mm 0 W/m2
20:00 39.8 °F /  4.3 °C 28.6 °F /  -1.9 °C 30.33in /  1027hPa NW 2mph /  3.2km/h 19mph /  30.6km/h 64% 0.00in /  0mm 0 W/m2
20:09 39.6 °F /  4.2 °C 28.5 °F /  -1.9 °C 30.33in /  1027hPa WNW 2.8mph /  4.5km/h 9mph /  14.5km/h 64% 0.00in /  0mm 0 W/m2
20:14 39.5 °F /  4.2 °C 28.3 °F /  -2.1 °C 30.34in /  1027.3hPa NW 2.4mph /  3.9km/h 9mph /  14.5km/h 64% 0.00in /  0mm 0 W/m2
20:19 39.4 °F /  4.1 °C 28.2 °F /  -2.1 °C 30.34in /  1027.3hPa NW 4.3mph /  6.9km/h 12mph /  19.3km/h 64% 0.00in /  0mm 0 W/m2
20:24 39.3 °F /  4.1 °C 28.2 °F /  -2.1 °C 30.34in /  1027.3hPa NW 5mph /  8km/h 14mph /  22.5km/h 64% 0.00in /  0mm 0 W/m2
20:29 39.3 °F /  4.1 °C 28.2 °F /  -2.1 °C 30.34in /  1027.3hPa NW 3.1mph /  5km/h 14mph /  22.5km/h 64% 0.00in /  0mm 0 W/m2
20:34 39.3 °F /  4.1 °C 28.1 °F /  -2.2 °C 30.35in /  1027.7hPa NW 1.3mph /  2.1km/h 14mph /  22.5km/h 64% 0.00in /  0mm 0 W/m2
20:39 39.2 °F /  4 °C 28 °F /  -2.2 °C 30.35in /  1027.7hPa WNW 2.8mph /  4.5km/h 11mph /  17.7km/h 64% 0.00in /  0mm 0 W/m2
20:44 39.1 °F /  3.9 °C 27.9 °F /  -2.3 °C 30.35in /  1027.7hPa NW 3.6mph /  5.8km/h 11mph /  17.7km/h 64% 0.00in /  0mm 0 W/m2
20:49 38.9 °F /  3.8 °C 28 °F /  -2.2 °C 30.35in /  1027.7hPa NW 3.1mph /  5km/h 13mph /  20.9km/h 64.5% 0.00in /  0mm 0 W/m2
20:54 38.9 °F /  3.8 °C 28.1 °F /  -2.2 °C 30.35in /  1027.7hPa NW 2.1mph /  3.4km/h 13mph /  20.9km/h 65% 0.00in /  0mm 0 W/m2
20:59 38.8 °F /  3.8 °C 28 °F /  -2.2 °C 30.36in /  1028hPa NW 2.9mph /  4.7km/h 13mph /  20.9km/h 65% 0.00in /  0mm 0 W/m2
21:04 38.7 °F /  3.7 °C 28 °F /  -2.2 °C 30.36in /  1028hPa NW 1.6mph /  2.6km/h 13mph /  20.9km/h 65% 0.00in /  0mm 0 W/m2
21:09 38.6 °F /  3.7 °C 27.9 °F /  -2.3 °C 30.36in /  1028hPa NW 6.3mph /  10.1km/h 13mph /  20.9km/h 65% 0.00in /  0mm 0 W/m2
21:14 38.6 °F /  3.7 °C 27.9 °F /  -2.3 °C 30.36in /  1028hPa WNW 2.9mph /  4.7km/h 13mph /  20.9km/h 65% 0.00in /  0mm 0 W/m2
21:19 38.6 °F /  3.7 °C 27.9 °F /  -2.3 °C 30.37in /  1028.3hPa WNW 3.8mph /  6.1km/h 13mph /  20.9km/h 65% 0.00in /  0mm 0 W/m2
21:24 38.5 °F /  3.6 °C 27.8 °F /  -2.3 °C 30.37in /  1028.3hPa NW 3.5mph /  5.6km/h 13mph /  20.9km/h 65% 0.00in /  0mm 0 W/m2
21:29 38.5 °F /  3.6 °C 28 °F /  -2.2 °C 30.38in /  1028.7hPa WNW 1.2mph /  1.9km/h 13mph /  20.9km/h 65.8% 0.00in /  0mm 0 W/m2
21:34 38.4 °F /  3.6 °C 28 °F /  -2.2 °C 30.38in /  1028.7hPa NW 0.8mph /  1.3km/h 13mph /  20.9km/h 66% 0.00in /  0mm 0 W/m2
21:39 38.3 °F /  3.5 °C 27.9 °F /  -2.3 °C 30.38in /  1028.7hPa NW 0.7mph /  1.1km/h 4mph /  6.4km/h 66% 0.00in /  0mm 0 W/m2
21:44 38.1 °F /  3.4 °C 27.8 °F /  -2.3 °C 30.38in /  1028.7hPa NW 1mph /  1.6km/h 5mph /  8km/h 66% 0.00in /  0mm 0 W/m2
21:49 38 °F /  3.3 °C 28 °F /  -2.2 °C 30.38in /  1028.7hPa NW 3.6mph /  5.8km/h 14mph /  22.5km/h 66.8% 0.00in /  0mm 0 W/m2
21:54 37.9 °F /  3.3 °C 27.9 °F /  -2.3 °C 30.39in /  1029hPa NW 2.4mph /  3.9km/h 14mph /  22.5km/h 66.8% 0.00in /  0mm 0 W/m2
21:59 37.9 °F /  3.3 °C 27.9 °F /  -2.3 °C 30.38in /  1028.7hPa NW 3.2mph /  5.1km/h 14mph /  22.5km/h 67% 0.00in /  0mm 0 W/m2
22:04 37.8 °F /  3.2 °C 27.9 °F /  -2.3 °C 30.38in /  1028.7hPa WNW 2.5mph /  4km/h 14mph /  22.5km/h 67% 0.00in /  0mm 0 W/m2
22:09 37.8 °F /  3.2 °C 27.8 °F /  -2.3 °C 30.39in /  1029hPa WNW 0.8mph /  1.3km/h 10mph /  16.1km/h 67% 0.00in /  0mm 0 W/m2
22:14 37.7 °F /  3.2 °C 27.7 °F /  -2.4 °C 30.39in /  1029hPa NW 1.3mph /  2.1km/h 10mph /  16.1km/h 67% 0.00in /  0mm 0 W/m2
22:19 37.5 °F /  3.1 °C 27.6 °F /  -2.4 °C 30.39in /  1029hPa NW 0.6mph /  1km/h 10mph /  16.1km/h 67% 0.00in /  0mm 0 W/m2
22:24 37.4 °F /  3 °C 27.5 °F /  -2.5 °C 30.39in /  1029hPa NW 0.2mph /  0.3km/h 10mph /  16.1km/h 67.2% 0.00in /  0mm 0 W/m2
22:29 37.3 °F /  2.9 °C 27.7 °F /  -2.4 °C 30.39in /  1029hPa NW 0.2mph /  0.3km/h 10mph /  16.1km/h 67.9% 0.00in /  0mm 0 W/m2
22:31 37.2 °F /  2.9 °C 27.3 °F /  -2.6 °C 30.40in /  1029.3hPa Calm   10mph /  16.1km/h 67% 0.00in /  0mm 0 W/m2
23:09 36.3 °F /  2.4 °C 27.1 °F /  -2.7 °C 30.41in /  1029.7hPa Calm     69% 0.00in /  0mm 0 W/m2
23:14 36.2 °F /  2.3 °C 27.1 °F /  -2.7 °C 30.42in /  1030hPa Calm     69.4% 0.00in /  0mm 0 W/m2
23:19 36 °F /  2.2 °C 27.1 °F /  -2.7 °C 30.42in /  1030hPa Calm     70% 0.00in /  0mm 0 W/m2
23:24 35.7 °F /  2.1 °C 26.9 °F /  -2.8 °C 30.42in /  1030hPa Calm     70% 0.00in /  0mm 0 W/m2
23:29 35.4 °F /  1.9 °C 27 °F /  -2.8 °C 30.42in /  1030hPa Calm     71% 0.00in /  0mm 0 W/m2
23:34 35.2 °F /  1.8 °C 26.8 °F /  -2.9 °C 30.42in /  1030hPa Calm     71.1% 0.00in /  0mm 0 W/m2
23:39 35 °F /  1.7 °C 26.9 °F /  -2.8 °C 30.42in /  1030hPa Calm     72% 0.00in /  0mm 0 W/m2
23:44 34.8 °F /  1.6 °C 26.8 °F /  -2.9 °C 30.42in /  1030hPa Calm     72.2% 0.00in /  0mm 0 W/m2
23:49 34.6 °F /  1.4 °C 26.9 °F /  -2.8 °C 30.42in /  1030hPa Calm     73% 0.00in /  0mm 0 W/m2
23:54 34.4 °F /  1.3 °C 27 °F /  -2.8 °C 30.42in /  1030hPa Calm     74% 0.00in /  0mm 0 W/m2
23:59 34.1 °F /  1.2 °C 27 °F /  -2.8 °C 30.42in /  1030hPa Calm     75% 0.00in /  0mm 0 W/m2
Hartford County Weather
Compliments of Weather Underground - 2 mb